Time;durP1;ratioP1;P1;durP2;ratioP2;P2;SDS_P1;SDS_P2;PMS_P1;PMS_P2;Temp;Humidity;BMP_temperature;BMP_pressure;BME280_temperature;BME280_humidity;BME280_pressure;Samples;Min_cycle;Max_cycle;Signal;HPM_P1;HPM_P2
2022/07/10 00:00:44;;;;;;;7.05;2.13;;;25.00;99.90;;;;;;4854202;29;20077;-82
2022/07/10 00:03:11;;;;;;;6.47;2.20;;;25.10;99.90;;;;;;4855730;29;20037;-81
2022/07/10 00:05:39;;;;;;;7.05;2.33;;;25.00;99.90;;;;;;4852779;29;20029;-76
2022/07/10 00:08:05;;;;;;;6.80;2.30;;;25.10;99.90;;;;;;4851802;29;20042;-77
2022/07/10 00:10:33;;;;;;;6.35;2.22;;;25.10;99.90;;;;;;4856496;29;20474;-76
2022/07/10 00:12:59;;;;;;;4.43;2.60;;;25.00;99.90;;;;;;4857821;29;20032;-78
2022/07/10 00:15:25;;;;;;;6.15;2.30;;;25.00;99.90;;;;;;4839495;29;20038;-76
2022/07/10 00:17:52;;;;;;;5.35;2.60;;;25.00;99.90;;;;;;4856200;29;20068;-76
2022/07/10 00:20:18;;;;;;;5.10;2.72;;;25.00;99.90;;;;;;4858076;29;20478;-75
2022/07/10 00:22:44;;;;;;;5.28;2.60;;;24.90;99.90;;;;;;4860363;29;20037;-76
2022/07/10 00:25:12;;;;;;;6.35;2.55;;;25.00;99.90;;;;;;4856921;29;20109;-78
2022/07/10 00:27:40;;;;;;;6.22;2.80;;;24.90;99.90;;;;;;4828813;29;20042;-75
2022/07/10 00:30:09;;;;;;;7.57;2.55;;;24.90;99.90;;;;;;4853635;29;20140;-75
2022/07/10 00:32:35;;;;;;;9.27;3.00;;;24.80;99.90;;;;;;4854831;29;20034;-76
2022/07/10 00:35:02;;;;;;;5.90;2.42;;;24.90;99.90;;;;;;4858713;29;20537;-75
2022/07/10 00:37:28;;;;;;;7.38;2.47;;;24.90;99.90;;;;;;4860189;29;20038;-80
2022/07/10 00:39:56;;;;;;;5.35;2.67;;;24.80;99.90;;;;;;4856314;29;20042;-76
2022/07/10 00:42:21;;;;;;;4.00;2.42;;;24.70;99.90;;;;;;4850859;29;20105;-78
2022/07/10 00:44:50;;;;;;;6.45;2.22;;;24.70;99.90;;;;;;4857697;29;20034;-77
2022/07/10 00:47:19;;;;;;;5.60;2.60;;;24.70;99.90;;;;;;4857168;29;20107;-77
2022/07/10 00:49:45;;;;;;;5.90;2.60;;;24.70;99.90;;;;;;4852841;29;20073;-81
2022/07/10 00:52:13;;;;;;;5.00;2.42;;;24.80;99.90;;;;;;4853933;29;20502;-77
2022/07/10 00:54:44;;;;;;;4.28;2.55;;;24.80;99.90;;;;;;4860270;29;20038;-80
2022/07/10 00:57:11;;;;;;;5.25;2.42;;;24.90;99.90;;;;;;4858507;29;20030;-76
2022/07/10 00:59:39;;;;;;;4.32;2.42;;;25.00;99.90;;;;;;4860597;29;20048;-77
2022/07/10 01:02:07;;;;;;;8.30;2.60;;;25.00;99.90;;;;;;4849283;29;20034;-76
2022/07/10 01:04:33;;;;;;;6.00;2.20;;;24.90;99.90;;;;;;4855574;29;20097;-75
2022/07/10 01:06:59;;;;;;;7.15;2.30;;;24.90;99.90;;;;;;4854765;29;20531;-76
2022/07/10 01:09:29;;;;;;;6.53;2.78;;;24.80;99.90;;;;;;4835042;29;20041;-77
2022/07/10 01:11:59;;;;;;;4.38;2.20;;;24.80;99.90;;;;;;4860771;29;20048;-77
2022/07/10 01:14:29;;;;;;;6.07;2.83;;;24.80;99.90;;;;;;4851813;29;20099;-77
2022/07/10 01:16:57;;;;;;;4.95;2.70;;;24.70;99.90;;;;;;4855833;29;20067;-77
2022/07/10 01:19:23;;;;;;;4.35;2.60;;;24.70;99.90;;;;;;4829224;29;20045;-76
2022/07/10 01:21:49;;;;;;;6.80;2.90;;;24.70;99.90;;;;;;4854132;29;20774;-76
2022/07/10 01:24:15;;;;;;;8.23;2.90;;;24.60;99.90;;;;;;4858064;29;20132;-79
2022/07/10 01:26:42;;;;;;;5.90;2.50;;;24.50;99.90;;;;;;4848344;29;20049;-76
2022/07/10 01:29:11;;;;;;;7.53;2.88;;;24.60;99.90;;;;;;4850895;29;20045;-75
2022/07/10 01:31:37;;;;;;;3.95;2.58;;;24.70;99.90;;;;;;4839191;29;20034;-75
2022/07/10 01:34:07;;;;;;;6.28;2.47;;;24.70;99.90;;;;;;4850228;29;20036;-76
2022/07/10 01:36:34;;;;;;;6.63;2.67;;;24.60;99.90;;;;;;4847111;29;20113;-78
2022/07/10 01:39:01;;;;;;;6.70;2.75;;;24.60;99.90;;;;;;4848472;29;20041;-76
2022/07/10 01:41:27;;;;;;;7.72;3.00;;;24.50;99.90;;;;;;4850369;29;20076;-77
2022/07/10 01:43:53;;;;;;;9.98;2.83;;;24.60;99.90;;;;;;4859644;29;20040;-78
2022/07/10 01:46:20;;;;;;;6.70;3.08;;;24.70;99.90;;;;;;4856204;29;20549;-76
2022/07/10 01:48:46;;;;;;;6.05;3.15;;;24.70;99.90;;;;;;4854603;29;20038;-77
2022/07/10 01:51:13;;;;;;;5.25;3.00;;;24.70;99.90;;;;;;4853735;29;20026;-78
2022/07/10 01:53:40;;;;;;;6.65;3.10;;;24.70;99.90;;;;;;4850746;29;20042;-76
2022/07/10 01:56:09;;;;;;;8.98;3.25;;;24.60;99.90;;;;;;4824909;29;20029;-76
2022/07/10 01:58:35;;;;;;;7.28;3.30;;;24.60;99.90;;;;;;4853969;29;20181;-75
2022/07/10 02:01:02;;;;;;;5.80;3.00;;;24.50;99.90;;;;;;4853705;29;20040;-76
2022/07/10 02:06:13;;;;;;;6.50;3.13;;;24.60;99.90;;;;;;4849040;29;20104;-75
2022/07/10 02:08:39;;;;;;;8.45;3.97;;;24.60;99.90;;;;;;4858519;29;20033;-81
2022/07/10 02:11:06;;;;;;;6.22;3.20;;;24.50;99.90;;;;;;4851964;29;20044;-75
2022/07/10 02:13:32;;;;;;;7.63;3.50;;;24.50;99.90;;;;;;4854197;29;20132;-73
2022/07/10 02:15:58;;;;;;;7.68;2.95;;;24.50;99.90;;;;;;4852675;29;20037;-74
2022/07/10 02:18:24;;;;;;;12.05;3.65;;;24.60;99.90;;;;;;4855004;29;20089;-75
2022/07/10 02:20:52;;;;;;;8.82;3.17;;;24.50;99.90;;;;;;4853935;29;20046;-76
2022/07/10 02:23:19;;;;;;;7.68;3.65;;;24.50;99.90;;;;;;4842382;29;20042;-77
2022/07/10 02:25:46;;;;;;;7.28;3.50;;;24.50;99.90;;;;;;4848883;29;20453;-78
2022/07/10 02:28:12;;;;;;;8.65;3.80;;;24.40;99.90;;;;;;4850797;29;20042;-75
2022/07/10 02:30:37;;;;;;;6.32;3.28;;;24.30;99.90;;;;;;4856300;29;20037;-75
2022/07/10 02:33:04;;;;;;;5.90;2.97;;;24.30;99.90;;;;;;4854597;29;20036;-77
2022/07/10 02:35:30;;;;;;;6.30;3.33;;;24.30;99.90;;;;;;4849890;29;20120;-76
2022/07/10 02:37:56;;;;;;;7.07;3.65;;;24.20;99.90;;;;;;4851057;29;20094;-75
2022/07/10 02:40:23;;;;;;;8.73;3.58;;;24.20;99.90;;;;;;4849652;29;20461;-76
2022/07/10 02:42:49;;;;;;;11.18;3.88;;;24.20;99.90;;;;;;4860490;29;20034;-77
2022/07/10 02:45:17;;;;;;;10.48;3.75;;;24.30;99.90;;;;;;4851698;29;20026;-76
2022/07/10 02:47:43;;;;;;;5.93;3.20;;;24.30;99.90;;;;;;4851202;29;20037;-76
2022/07/10 02:50:10;;;;;;;13.15;3.95;;;24.30;99.90;;;;;;4841238;29;20043;-76
2022/07/10 02:52:36;;;;;;;11.07;3.95;;;24.40;99.90;;;;;;4837795;29;20541;-79
2022/07/10 02:55:05;;;;;;;6.88;3.78;;;24.40;99.90;;;;;;4860433;29;20072;-76
2022/07/10 02:57:31;;;;;;;9.45;3.83;;;24.40;99.90;;;;;;4856417;29;20056;-76
2022/07/10 02:59:58;;;;;;;6.28;3.78;;;24.40;99.90;;;;;;4851160;29;20577;-76
2022/07/10 03:02:24;;;;;;;7.07;3.28;;;24.40;99.90;;;;;;4851410;29;20046;-80
2022/07/10 03:04:50;;;;;;;6.63;3.80;;;24.40;99.90;;;;;;4855010;29;20040;-76
2022/07/10 03:07:15;;;;;;;6.28;3.55;;;24.30;99.90;;;;;;4854563;29;20486;-76
2022/07/10 03:09:41;;;;;;;9.75;3.60;;;24.30;99.90;;;;;;4855550;29;20029;-80
2022/07/10 03:12:08;;;;;;;5.55;3.17;;;24.30;99.90;;;;;;4851576;29;20034;-80
2022/07/10 03:14:34;;;;;;;7.93;3.58;;;24.20;99.90;;;;;;4855316;29;20041;-76
2022/07/10 03:17:00;;;;;;;8.48;3.30;;;24.20;99.90;;;;;;4856100;29;20034;-81
2022/07/10 03:19:26;;;;;;;10.00;3.40;;;24.10;99.90;;;;;;4847227;29;20060;-76
2022/07/10 03:21:52;;;;;;;9.38;3.88;;;24.20;99.90;;;;;;4862457;29;20042;-75
2022/07/10 03:24:17;;;;;;;7.65;3.45;;;24.10;99.90;;;;;;4857013;29;20125;-75
2022/07/10 03:26:44;;;;;;;8.80;3.88;;;24.00;99.90;;;;;;4850731;29;20520;-79
2022/07/10 03:29:12;;;;;;;6.53;3.42;;;24.00;99.90;;;;;;4854073;29;20086;-76
2022/07/10 03:31:38;;;;;;;7.28;3.70;;;24.10;99.90;;;;;;4844616;29;20045;-79
2022/07/10 03:34:04;;;;;;;9.23;3.60;;;24.10;99.90;;;;;;4853231;29;20033;-75
2022/07/10 03:36:30;;;;;;;6.97;3.10;;;24.10;99.90;;;;;;4852755;29;20421;-75
2022/07/10 03:38:59;;;;;;;5.43;3.15;;;24.10;99.90;;;;;;4852095;29;20034;-77
2022/07/10 03:41:24;;;;;;;4.53;3.28;;;24.10;99.90;;;;;;4849054;29;20050;-75
2022/07/10 03:43:50;;;;;;;5.13;2.80;;;24.20;99.90;;;;;;4851143;29;20034;-81
2022/07/10 03:46:17;;;;;;;8.13;3.10;;;24.20;99.90;;;;;;4849010;29;20126;-81
2022/07/10 03:48:43;;;;;;;10.70;3.25;;;24.20;99.90;;;;;;4854360;29;20493;-76
2022/07/10 03:51:10;;;;;;;9.98;2.72;;;24.10;99.90;;;;;;4854980;29;20053;-77
2022/07/10 03:53:37;;;;;;;5.22;2.60;;;24.10;99.90;;;;;;4839719;29;20035;-75
2022/07/10 03:56:04;;;;;;;8.15;3.08;;;24.10;99.90;;;;;;4858849;29;20034;-78
2022/07/10 03:58:32;;;;;;;7.95;3.22;;;24.00;99.90;;;;;;4850962;29;20033;-76
2022/07/10 04:00:58;;;;;;;8.27;2.92;;;24.10;99.90;;;;;;4854511;29;20060;-75
2022/07/10 04:03:24;;;;;;;5.32;2.40;;;24.10;99.90;;;;;;4861820;29;20367;-76
2022/07/10 04:05:51;;;;;;;5.30;2.10;;;24.00;99.90;;;;;;4854859;29;20046;-75
2022/07/10 04:08:18;;;;;;;4.28;2.30;;;23.90;99.90;;;;;;4851899;29;20045;-81
2022/07/10 04:10:44;;;;;;;7.38;2.40;;;23.90;99.90;;;;;;4856875;29;20033;-76
2022/07/10 04:13:10;;;;;;;6.88;2.63;;;23.80;99.90;;;;;;4850819;29;20048;-79
2022/07/10 04:15:36;;;;;;;5.13;2.40;;;23.80;99.90;;;;;;4845595;29;20133;-81
2022/07/10 04:18:03;;;;;;;4.97;2.50;;;23.80;99.90;;;;;;4857168;29;20053;-76
2022/07/10 04:20:29;;;;;;;4.63;2.47;;;23.90;99.90;;;;;;4857412;29;20038;-77
2022/07/10 04:22:56;;;;;;;8.25;2.95;;;23.90;99.90;;;;;;4854871;29;20038;-75
2022/07/10 04:25:23;;;;;;;6.28;2.75;;;23.90;99.90;;;;;;4856427;29;20056;-80
2022/07/10 04:27:50;;;;;;;5.95;2.45;;;24.00;99.90;;;;;;4857159;29;20066;-78
2022/07/10 04:30:16;;;;;;;6.63;2.33;;;24.00;99.90;;;;;;4856000;29;20060;-80
2022/07/10 04:32:42;;;;;;;4.57;2.03;;;24.00;99.90;;;;;;4853729;29;20053;-82
2022/07/10 04:35:08;;;;;;;3.67;2.20;;;23.90;99.90;;;;;;4855769;29;20060;-76
2022/07/10 04:37:34;;;;;;;3.67;2.00;;;23.90;99.90;;;;;;4853755;29;20030;-75
2022/07/10 04:40:01;;;;;;;4.35;1.83;;;24.00;99.90;;;;;;4856231;29;20497;-78
2022/07/10 04:42:27;;;;;;;6.85;2.50;;;24.00;99.90;;;;;;4836656;29;20041;-75
2022/07/10 04:44:55;;;;;;;4.47;1.83;;;24.10;99.90;;;;;;4856422;29;20042;-78
2022/07/10 04:47:21;;;;;;;4.00;1.75;;;24.10;99.90;;;;;;4853256;29;20495;-76
2022/07/10 04:49:46;;;;;;;5.72;2.28;;;24.00;99.90;;;;;;4835606;29;20037;-76
2022/07/10 04:52:12;;;;;;;5.30;1.90;;;24.00;99.90;;;;;;4854795;29;20033;-81
2022/07/10 04:54:41;;;;;;;8.05;2.22;;;23.90;99.90;;;;;;4853825;29;20037;-77
2022/07/10 04:57:06;;;;;;;3.33;1.98;;;24.00;99.90;;;;;;4855845;29;20041;-78
2022/07/10 04:59:35;;;;;;;4.25;1.70;;;24.10;99.90;;;;;;4853886;29;20038;-76
2022/07/10 05:02:01;;;;;;;3.90;1.85;;;24.20;99.90;;;;;;4856262;29;20059;-81
2022/07/10 05:04:26;;;;;;;4.18;1.80;;;24.20;99.90;;;;;;4854378;29;20038;-77
2022/07/10 05:06:52;;;;;;;4.85;2.13;;;24.30;99.90;;;;;;4858997;29;20124;-76
2022/07/10 05:09:20;;;;;;;4.35;2.20;;;24.40;99.90;;;;;;4857526;29;20033;-76
2022/07/10 05:11:47;;;;;;;4.13;2.05;;;24.40;99.90;;;;;;4857958;29;20050;-75
2022/07/10 05:14:13;;;;;;;6.85;2.00;;;24.50;99.90;;;;;;4858194;29;20972;-82
2022/07/10 05:16:39;;;;;;;5.90;2.08;;;24.60;99.90;;;;;;4851333;29;20069;-76
2022/07/10 05:19:05;;;;;;;4.53;1.83;;;24.70;99.90;;;;;;4851107;29;20045;-76
2022/07/10 05:21:30;;;;;;;5.78;1.73;;;24.80;99.90;;;;;;4857159;29;20059;-77
2022/07/10 05:23:56;;;;;;;3.45;1.83;;;24.80;99.90;;;;;;4853687;29;20036;-81
2022/07/10 05:26:23;;;;;;;5.47;1.92;;;24.80;99.90;;;;;;4858130;29;20096;-77
2022/07/10 05:28:49;;;;;;;4.57;2.10;;;24.80;99.90;;;;;;4851318;29;20068;-74
2022/07/10 05:31:17;;;;;;;4.95;2.08;;;24.80;99.90;;;;;;4858793;29;20053;-75
2022/07/10 05:33:44;;;;;;;8.13;2.20;;;24.90;99.90;;;;;;4849921;29;20505;-74
2022/07/10 05:36:10;;;;;;;5.32;2.60;;;25.00;99.90;;;;;;4840331;29;20033;-75
2022/07/10 05:38:36;;;;;;;4.35;2.20;;;25.00;99.90;;;;;;4856474;29;20060;-76
2022/07/10 05:41:02;;;;;;;5.82;2.00;;;25.10;99.90;;;;;;4853297;29;20478;-77
2022/07/10 05:43:28;;;;;;;4.72;2.30;;;25.10;99.90;;;;;;4858563;29;20068;-80
2022/07/10 05:45:54;;;;;;;5.18;2.20;;;25.20;99.90;;;;;;4855945;29;20033;-76
2022/07/10 05:48:20;;;;;;;5.90;2.28;;;25.30;99.90;;;;;;4850157;29;20501;-76
2022/07/10 05:50:46;;;;;;;5.05;2.40;;;25.40;99.90;;;;;;4855444;29;20042;-76
2022/07/10 05:53:12;;;;;;;3.95;2.15;;;25.40;99.90;;;;;;4853682;29;20053;-79
2022/07/10 05:55:37;;;;;;;7.43;2.63;;;25.50;99.90;;;;;;4851324;29;20042;-75
2022/07/10 05:58:03;;;;;;;5.97;2.15;;;25.50;99.90;;;;;;4846130;29;20037;-75
2022/07/10 06:00:29;;;;;;;4.90;2.47;;;25.60;99.90;;;;;;4849806;29;20474;-75
2022/07/10 06:02:55;;;;;;;7.53;2.30;;;25.70;99.90;;;;;;4855417;29;20093;-81
2022/07/10 06:05:21;;;;;;;5.50;2.33;;;25.80;99.90;;;;;;4856607;29;20060;-76
2022/07/10 06:07:47;;;;;;;4.68;2.38;;;25.80;99.90;;;;;;4848969;29;20042;-75
2022/07/10 06:10:13;;;;;;;4.88;2.50;;;25.90;99.90;;;;;;4849655;29;20049;-76
2022/07/10 06:12:40;;;;;;;5.00;2.22;;;25.90;99.90;;;;;;4856203;29;20040;-81
2022/07/10 06:15:06;;;;;;;8.00;2.50;;;26.00;99.90;;;;;;4847798;29;20052;-76
2022/07/10 06:17:32;;;;;;;6.28;2.47;;;26.10;99.90;;;;;;4849482;29;20049;-76
2022/07/10 06:19:58;;;;;;;7.25;2.50;;;26.10;99.90;;;;;;4854489;29;20033;-80
2022/07/10 06:22:32;;;;;;;7.75;2.70;;;26.20;99.90;;;;;;4846728;29;20064;-77
2022/07/10 06:25:11;;;;;;;5.88;2.38;;;26.20;99.90;;;;;;4853252;29;20050;-75
2022/07/10 06:27:37;;;;;;;5.55;2.42;;;26.30;99.90;;;;;;4847547;29;20042;-75
2022/07/10 06:30:06;;;;;;;6.60;2.30;;;26.30;99.90;;;;;;4847592;29;20041;-79
2022/07/10 06:32:31;;;;;;;4.25;2.17;;;26.30;99.90;;;;;;4834107;29;20049;-75
2022/07/10 06:34:58;;;;;;;3.90;2.03;;;26.40;99.90;;;;;;4858715;29;20045;-77
2022/07/10 06:37:25;;;;;;;3.97;2.40;;;26.40;99.90;;;;;;4852604;29;20036;-76
2022/07/10 06:39:51;;;;;;;4.07;2.30;;;26.50;99.90;;;;;;4849792;29;20101;-80
2022/07/10 06:42:17;;;;;;;5.20;2.50;;;26.60;99.90;;;;;;4848291;29;20129;-81
2022/07/10 06:44:43;;;;;;;5.22;2.55;;;26.60;99.90;;;;;;4853274;29;20045;-76
2022/07/10 06:49:56;;;;;;;6.30;2.20;;;26.80;99.90;;;;;;4854448;29;20534;-76
2022/07/10 06:52:23;;;;;;;6.25;2.38;;;26.90;99.90;;;;;;4855837;29;20112;-79
2022/07/10 06:54:49;;;;;;;5.40;2.35;;;27.00;99.90;;;;;;4851559;29;20102;-78
2022/07/10 06:57:15;;;;;;;7.65;2.40;;;27.00;99.90;;;;;;4850395;29;20125;-76
2022/07/10 06:59:42;;;;;;;4.85;2.35;;;27.10;99.90;;;;;;4852764;29;20116;-73
2022/07/10 07:02:09;;;;;;;6.20;2.20;;;27.20;99.70;;;;;;4850669;29;20138;-81
2022/07/10 07:04:35;;;;;;;4.65;2.45;;;27.30;99.60;;;;;;4855890;29;20419;-75
2022/07/10 07:07:02;;;;;;;3.67;1.80;;;27.40;99.30;;;;;;4846688;29;20034;-75
2022/07/10 07:09:30;;;;;;;6.35;2.33;;;27.40;98.80;;;;;;4857047;29;20033;-74
2022/07/10 07:11:55;;;;;;;4.40;1.90;;;27.50;98.50;;;;;;4848206;29;20104;-77
2022/07/10 07:14:21;;;;;;;6.05;2.25;;;27.50;98.20;;;;;;4853024;29;20074;-81
2022/07/10 07:16:57;;;;;;;6.20;2.42;;;27.60;97.90;;;;;;4849880;29;20463;-77
2022/07/10 07:19:30;;;;;;;5.80;2.30;;;27.70;97.80;;;;;;4852072;29;20049;-81
2022/07/10 07:24:47;;;;;;;5.00;2.30;;;27.90;97.70;;;;;;4850818;29;20037;-77
2022/07/10 07:27:13;;;;;;;5.43;2.22;;;27.90;97.30;;;;;;4857201;29;20144;-80
2022/07/10 07:29:39;;;;;;;6.22;2.38;;;28.00;97.10;;;;;;4855780;29;20325;-79
2022/07/10 07:32:05;;;;;;;6.38;2.53;;;28.20;97.10;;;;;;4858584;29;20104;-77
2022/07/10 07:34:31;;;;;;;6.38;2.50;;;28.10;96.90;;;;;;4853907;29;20037;-78
2022/07/10 07:36:58;;;;;;;3.97;2.30;;;28.20;97.00;;;;;;4852526;29;20117;-80
2022/07/10 07:39:25;;;;;;;8.10;2.60;;;28.30;96.80;;;;;;4844322;29;20115;-77
2022/07/10 07:41:50;;;;;;;5.15;2.40;;;28.30;96.70;;;;;;4853973;29;20029;-81
2022/07/10 07:44:17;;;;;;;4.88;1.92;;;28.40;96.30;;;;;;4854245;29;20034;-81
2022/07/10 07:46:44;;;;;;;6.03;1.92;;;28.50;95.50;;;;;;4855526;29;20033;-75
2022/07/10 07:49:09;;;;;;;4.90;2.03;;;28.60;95.00;;;;;;4859016;29;20040;-80
2022/07/10 07:51:35;;;;;;;4.50;1.50;;;28.70;94.50;;;;;;4856970;29;20034;-80
2022/07/10 07:54:01;;;;;;;5.32;1.90;;;28.70;93.20;;;;;;4854980;29;20086;-76
2022/07/10 07:56:27;;;;;;;2.83;1.70;;;28.70;93.20;;;;;;4853485;29;20130;-76
2022/07/10 07:58:52;;;;;;;5.32;2.22;;;28.80;93.30;;;;;;4857158;29;20030;-76
2022/07/10 08:01:19;;;;;;;3.92;1.88;;;28.80;93.00;;;;;;4850850;29;20037;-82
2022/07/10 08:03:47;;;;;;;2.40;1.75;;;28.90;93.00;;;;;;4847317;29;20148;-76
2022/07/10 08:06:12;;;;;;;6.80;2.10;;;29.00;93.00;;;;;;4848492;29;20137;-80
2022/07/10 08:08:39;;;;;;;6.63;2.00;;;29.00;92.90;;;;;;4843291;29;20049;-79
2022/07/10 08:11:06;;;;;;;3.25;1.63;;;29.00;92.90;;;;;;4845201;29;20049;-76
2022/07/10 08:13:33;;;;;;;3.53;1.83;;;29.00;92.70;;;;;;4850097;29;20049;-76
2022/07/10 08:15:59;;;;;;;4.10;1.80;;;29.10;92.70;;;;;;4852324;29;20390;-79
2022/07/10 08:18:25;;;;;;;5.60;1.92;;;29.00;92.40;;;;;;4853063;29;20041;-76
2022/07/10 08:20:51;;;;;;;4.35;1.83;;;29.10;92.50;;;;;;4859714;29;20038;-79
2022/07/10 08:23:17;;;;;;;4.60;1.70;;;29.30;92.30;;;;;;4856144;29;20745;-81
2022/07/10 08:25:42;;;;;;;5.32;2.03;;;29.40;92.40;;;;;;4854152;29;20041;-78
2022/07/10 08:28:11;;;;;;;4.85;2.03;;;29.60;92.30;;;;;;4851356;29;20054;-76
2022/07/10 08:30:37;;;;;;;5.38;1.80;;;29.60;91.80;;;;;;4855453;29;20053;-78
2022/07/10 08:33:03;;;;;;;6.05;1.80;;;29.60;91.90;;;;;;4848862;29;20045;-76
2022/07/10 08:35:30;;;;;;;3.25;1.70;;;29.70;91.80;;;;;;4857241;29;20489;-82
2022/07/10 08:37:57;;;;;;;4.80;1.65;;;29.80;91.90;;;;;;4852913;29;20151;-77
2022/07/10 08:40:23;;;;;;;3.55;1.75;;;29.90;91.80;;;;;;4846525;29;20053;-78
2022/07/10 08:42:50;;;;;;;8.98;2.58;;;30.00;91.60;;;;;;4852872;29;20045;-78
2022/07/10 08:45:16;;;;;;;6.90;2.00;;;30.10;91.80;;;;;;4846153;29;20071;-76
2022/07/10 08:47:44;;;;;;;5.78;1.77;;;30.20;91.30;;;;;;4851718;29;20137;-77
2022/07/10 08:50:21;;;;;;;3.50;1.60;;;30.10;91.00;;;;;;4850898;29;20053;-77
2022/07/10 08:53:12;;;;;;;4.80;1.65;;;30.00;91.00;;;;;;4833297;29;20063;-74
2022/07/10 08:55:39;;;;;;;3.33;1.70;;;30.10;90.80;;;;;;4841344;29;20034;-74
2022/07/10 08:58:07;;;;;;;7.13;1.55;;;30.20;90.80;;;;;;4836742;29;20569;-74
2022/07/10 09:00:33;;;;;;;4.70;1.83;;;30.20;90.50;;;;;;4848109;29;20065;-76
2022/07/10 09:02:59;;;;;;;3.53;1.92;;;30.00;90.50;;;;;;4855133;29;20049;-75
2022/07/10 09:05:26;;;;;;;4.38;1.50;;;30.20;90.80;;;;;;4853742;29;20045;-76
2022/07/10 09:07:53;;;;;;;4.03;1.70;;;30.20;90.50;;;;;;4856725;29;20348;-79
2022/07/10 09:10:22;;;;;;;4.05;1.80;;;30.50;90.70;;;;;;4856658;29;20079;-76
2022/07/10 09:12:56;;;;;;;3.53;1.77;;;30.40;90.60;;;;;;4854263;29;20034;-76
2022/07/10 09:15:32;;;;;;;4.60;1.70;;;30.30;90.60;;;;;;4854375;29;21264;-75
2022/07/10 09:18:05;;;;;;;4.32;2.72;;;30.50;90.30;;;;;;4852450;29;20129;-76
2022/07/10 09:20:33;;;;;;;7.32;2.40;;;30.50;90.20;;;;;;4835707;29;20053;-79
2022/07/10 09:23:29;;;;;;;5.03;1.60;;;30.50;90.20;;;;;;4836837;29;20030;-77
2022/07/10 09:25:55;;;;;;;4.50;1.52;;;30.40;90.10;;;;;;4857938;29;20037;-79
2022/07/10 09:28:27;;;;;;;2.58;1.40;;;30.70;89.80;;;;;;4857545;29;20045;-76
2022/07/10 09:30:53;;;;;;;6.35;1.95;;;30.70;89.60;;;;;;4862321;29;20117;-77
2022/07/10 09:33:25;;;;;;;7.07;1.70;;;30.70;89.80;;;;;;4857322;29;20038;-77
2022/07/10 09:36:18;;;;;;;5.47;2.05;;;30.80;90.00;;;;;;4857108;29;20170;-76
2022/07/10 09:38:44;;;;;;;3.63;1.70;;;31.00;89.90;;;;;;4851382;29;20041;-80
2022/07/10 09:41:27;;;;;;;3.63;1.58;;;31.10;88.80;;;;;;4847352;29;20033;-75
2022/07/10 09:44:01;;;;;;;3.40;1.45;;;30.80;89.40;;;;;;4851569;29;20092;-76
2022/07/10 09:46:43;;;;;;;6.38;1.88;;;31.00;89.60;;;;;;4864020;29;20060;-76
2022/07/10 09:49:12;;;;;;;;;;;30.80;88.90;;;;;;4852508;29;20040;-74
2022/07/10 09:51:43;;;;;;;3.63;1.50;;;30.70;88.50;;;;;;4850052;29;19916;-75
2022/07/10 09:54:12;;;;;;;2.35;1.63;;;30.80;88.60;;;;;;4851572;29;20038;-76
2022/07/10 09:56:47;;;;;;;2.85;1.70;;;30.70;88.00;;;;;;4853267;29;20484;-76
2022/07/10 09:59:18;;;;;;;4.65;1.60;;;30.80;88.60;;;;;;4852791;29;20546;-80
2022/07/10 10:01:50;;;;;;;2.53;1.13;;;30.60;88.20;;;;;;4852814;29;20048;-74
2022/07/10 10:04:20;;;;;;;2.08;1.30;;;30.60;87.30;;;;;;4850265;29;20046;-76
2022/07/10 10:06:51;;;;;;;5.85;1.60;;;30.50;87.60;;;;;;4850103;29;20087;-79
2022/07/10 10:09:26;;;;;;;3.45;1.48;;;30.70;87.50;;;;;;4855561;29;20049;-75
2022/07/10 10:11:59;;;;;;;3.53;1.30;;;30.60;87.20;;;;;;4849507;29;20034;-75
2022/07/10 10:14:27;;;;;;;4.95;1.60;;;30.50;86.80;;;;;;4820253;29;20041;-76
2022/07/10 10:16:55;;;;;;;5.93;1.60;;;30.50;87.50;;;;;;4851512;29;20041;-75
2022/07/10 10:22:08;;;;;;;5.13;1.63;;;30.20;88.60;;;;;;4849496;29;20094;-79
2022/07/10 10:24:36;;;;;;;2.63;1.40;;;30.20;88.30;;;;;;4864181;29;20033;-75
2022/07/10 10:27:06;;;;;;;3.60;1.70;;;30.20;89.50;;;;;;4854034;29;20040;-79
2022/07/10 10:29:35;;;;;;;6.28;1.70;;;30.30;90.40;;;;;;4854765;29;20093;-78
2022/07/10 10:32:03;;;;;;;3.75;1.83;;;30.30;91.00;;;;;;4853222;29;20086;-81
2022/07/10 10:34:42;;;;;;;2.40;1.52;;;30.00;90.90;;;;;;4851288;29;20120;-76
2022/07/10 10:37:26;;;;;;;4.50;1.70;;;30.00;90.60;;;;;;4842482;29;20059;-81
2022/07/10 10:39:55;;;;;;;3.25;1.75;;;30.20;90.40;;;;;;4857039;29;20371;-77
2022/07/10 10:42:34;;;;;;;5.40;2.03;;;30.40;90.40;;;;;;4851095;29;20072;-78
2022/07/10 10:45:22;;;;;;;3.33;1.60;;;30.40;90.60;;;;;;4855622;29;20062;-77
2022/07/10 10:48:09;;;;;;;6.20;1.95;;;30.60;90.90;;;;;;4848691;29;20038;-74
2022/07/10 10:50:49;;;;;;;3.30;1.80;;;30.60;91.70;;;;;;4865878;29;20050;-76
2022/07/10 10:53:18;;;;;;;5.63;2.55;;;30.20;92.20;;;;;;4850537;29;20395;-76
2022/07/10 10:56:07;;;;;;;4.47;2.08;;;30.30;92.50;;;;;;4862987;29;20034;-75
2022/07/10 10:58:47;;;;;;;3.60;1.30;;;30.70;92.70;;;;;;4829763;29;20505;-76
2022/07/10 11:01:29;;;;;;;4.45;1.60;;;30.60;90.80;;;;;;4852558;29;20046;-74
2022/07/10 11:04:03;;;;;;;;;;;30.50;91.90;;;;;;4852211;29;20068;-76
2022/07/10 11:06:39;;;;;;;5.47;2.10;;;30.80;91.90;;;;;;4847501;29;19917;-75
2022/07/10 11:09:24;;;;;;;5.03;1.88;;;30.90;92.10;;;;;;4848267;29;20094;-81
2022/07/10 11:12:10;;;;;;;4.57;1.70;;;30.70;91.40;;;;;;4848836;29;20587;-74
2022/07/10 11:14:44;;;;;;;2.95;1.40;;;31.00;91.70;;;;;;4863874;29;20181;-76
2022/07/10 11:17:10;;;;;;;7.13;1.60;;;31.00;90.80;;;;;;4848388;29;20555;-75
2022/07/10 11:19:37;;;;;;;4.78;1.52;;;30.80;91.60;;;;;;4850585;29;20042;-76
2022/07/10 11:22:24;;;;;;;4.57;1.60;;;31.20;91.40;;;;;;4852614;29;20038;-76
2022/07/10 11:25:28;;;;;;;8.40;1.70;;;31.30;91.30;;;;;;4847802;29;20099;-79
2022/07/10 11:28:11;;;;;;;9.73;1.85;;;31.20;91.80;;;;;;4850107;29;20037;-80
2022/07/10 11:30:56;;;;;;;5.90;1.52;;;31.40;91.60;;;;;;4851327;29;20042;-78
2022/07/10 11:33:22;;;;;;;3.40;1.40;;;31.70;91.30;;;;;;4848470;29;20061;-76
2022/07/10 11:35:52;;;;;;;3.13;1.20;;;31.30;91.80;;;;;;4853728;29;20125;-81
2022/07/10 11:38:23;;;;;;;3.33;1.23;;;31.20;91.30;;;;;;4856092;29;20095;-76
2022/07/10 11:40:49;;;;;;;5.57;1.37;;;31.30;91.50;;;;;;4849412;29;20042;-75
2022/07/10 11:43:17;;;;;;;9.95;1.17;;;31.20;91.40;;;;;;4847390;29;20619;-81
2022/07/10 11:45:43;;;;;;;6.03;1.52;;;30.60;90.90;;;;;;4850211;29;20510;-74
2022/07/10 11:48:23;;;;;;;4.05;1.73;;;31.10;92.10;;;;;;4848287;29;20129;-81
2022/07/10 11:50:49;;;;;;;4.18;1.45;;;31.60;92.80;;;;;;4853521;29;20036;-76
2022/07/10 11:53:24;;;;;;;3.67;1.67;;;31.60;93.20;;;;;;4851658;29;20049;-75
2022/07/10 11:55:52;;;;;;;6.63;2.00;;;32.00;93.90;;;;;;4853324;29;20525;-79
2022/07/10 11:58:19;;;;;;;2.08;1.55;;;31.80;94.10;;;;;;4852110;29;20063;-76
2022/07/10 12:00:59;;;;;;;5.75;1.63;;;31.60;93.30;;;;;;4833285;29;20116;-79
2022/07/10 12:03:25;;;;;;;4.35;1.77;;;31.90;92.80;;;;;;4840824;29;20033;-74
2022/07/10 12:05:52;;;;;;;2.88;1.40;;;31.80;93.50;;;;;;4852141;29;20030;-81
2022/07/10 12:08:19;;;;;;;4.22;1.13;;;31.90;93.30;;;;;;4851992;29;20144;-74
2022/07/10 12:10:45;;;;;;;3.22;1.50;;;31.80;93.60;;;;;;4851473;29;20603;-80
2022/07/10 12:13:15;;;;;;;4.18;1.45;;;32.10;93.40;;;;;;4854469;29;20117;-74
2022/07/10 12:15:46;;;;;;;5.03;1.20;;;32.20;92.20;;;;;;4864741;29;20466;-75
2022/07/10 12:18:17;;;;;;;4.13;1.07;;;32.00;92.50;;;;;;4849050;29;20044;-80
2022/07/10 12:20:45;;;;;;;;;;;31.70;92.80;;;;;;4852048;29;20274;-76
2022/07/10 12:23:15;;;;;;;4.78;1.48;;;32.00;93.00;;;;;;4854659;29;20288;-81
2022/07/10 12:25:50;;;;;;;6.18;1.63;;;31.80;92.70;;;;;;4835070;29;20037;-77
2022/07/10 12:28:16;;;;;;;3.30;1.50;;;31.80;93.20;;;;;;4831650;29;20584;-74
2022/07/10 12:30:49;;;;;;;5.85;1.42;;;31.90;93.10;;;;;;4833911;29;20066;-74
2022/07/10 12:33:23;;;;;;;4.07;1.55;;;31.90;93.30;;;;;;4844280;29;20050;-75
2022/07/10 12:35:57;;;;;;;3.20;1.58;;;31.70;93.30;;;;;;4844264;29;20050;-74
2022/07/10 12:38:28;;;;;;;6.05;1.45;;;32.20;92.70;;;;;;4846565;29;20046;-75
2022/07/10 12:41:11;;;;;;;5.50;1.20;;;31.90;92.30;;;;;;4844625;29;20049;-78
2022/07/10 12:43:37;;;;;;;5.38;1.40;;;32.50;91.80;;;;;;4848717;29;20379;-78
2022/07/10 12:46:22;;;;;;;6.07;1.48;;;32.40;91.70;;;;;;4836317;29;20516;-75
2022/07/10 12:49:07;;;;;;;8.80;1.60;;;32.30;91.80;;;;;;4850974;29;20382;-75
2022/07/10 12:51:42;;;;;;;8.50;1.50;;;32.80;92.00;;;;;;4860666;29;20054;-77
2022/07/10 12:54:07;;;;;;;6.05;1.50;;;32.50;91.70;;;;;;4828720;29;20097;-77
2022/07/10 12:56:35;;;;;;;4.30;1.55;;;32.10;92.60;;;;;;4833358;29;20042;-74
2022/07/10 12:59:03;;;;;;;5.20;1.13;;;32.30;92.80;;;;;;4839340;29;20095;-80
2022/07/10 13:01:41;;;;;;;5.30;1.33;;;32.50;91.90;;;;;;4846543;29;20417;-77
2022/07/10 13:04:08;;;;;;;4.22;1.33;;;32.30;92.00;;;;;;4849045;29;20515;-77
2022/07/10 13:06:36;;;;;;;6.18;1.55;;;31.90;92.50;;;;;;4844865;29;20046;-80